sensor_id;sensor_type;location;lat;lon;timestamp;temperature;humidity
18229;DHT22;9239;50.932;3.142;2022-12-11T00:00:44;2.30;99.90
18229;DHT22;9239;50.932;3.142;2022-12-11T00:03:11;2.30;99.90
18229;DHT22;9239;50.932;3.142;2022-12-11T00:05:39;2.30;99.90
18229;DHT22;9239;50.932;3.142;2022-12-11T00:08:06;2.30;99.90
18229;DHT22;9239;50.932;3.142;2022-12-11T00:10:33;2.30;99.90
18229;DHT22;9239;50.932;3.142;2022-12-11T00:13:02;2.30;99.90
18229;DHT22;9239;50.932;3.142;2022-12-11T00:15:29;2.30;99.90
18229;DHT22;9239;50.932;3.142;2022-12-11T00:17:56;2.30;99.90
18229;DHT22;9239;50.932;3.142;2022-12-11T00:20:23;2.30;99.90
18229;DHT22;9239;50.932;3.142;2022-12-11T00:22:50;2.40;99.90
18229;DHT22;9239;50.932;3.142;2022-12-11T00:25:17;2.30;99.90
18229;DHT22;9239;50.932;3.142;2022-12-11T00:27:45;2.40;99.90
18229;DHT22;9239;50.932;3.142;2022-12-11T00:30:13;2.40;99.90
18229;DHT22;9239;50.932;3.142;2022-12-11T00:32:41;2.40;99.90
18229;DHT22;9239;50.932;3.142;2022-12-11T00:35:08;2.40;99.90
18229;DHT22;9239;50.932;3.142;2022-12-11T00:37:35;2.40;99.90
18229;DHT22;9239;50.932;3.142;2022-12-11T00:40:03;2.40;99.90
18229;DHT22;9239;50.932;3.142;2022-12-11T00:42:30;2.40;99.90
18229;DHT22;9239;50.932;3.142;2022-12-11T00:44:56;2.40;99.90
18229;DHT22;9239;50.932;3.142;2022-12-11T00:47:25;2.40;99.90
18229;DHT22;9239;50.932;3.142;2022-12-11T00:49:52;2.40;99.90
18229;DHT22;9239;50.932;3.142;2022-12-11T00:52:18;2.30;99.90
18229;DHT22;9239;50.932;3.142;2022-12-11T00:54:45;2.40;99.90
18229;DHT22;9239;50.932;3.142;2022-12-11T00:57:12;2.30;99.90
18229;DHT22;9239;50.932;3.142;2022-12-11T00:59:39;2.40;99.90
18229;DHT22;9239;50.932;3.142;2022-12-11T01:02:06;2.40;99.90
18229;DHT22;9239;50.932;3.142;2022-12-11T01:04:35;2.30;99.90
18229;DHT22;9239;50.932;3.142;2022-12-11T01:07:02;2.30;99.90
18229;DHT22;9239;50.932;3.142;2022-12-11T01:09:29;2.30;99.90
18229;DHT22;9239;50.932;3.142;2022-12-11T01:12:14;2.30;99.90
18229;DHT22;9239;50.932;3.142;2022-12-11T01:14:41;2.40;99.90
18229;DHT22;9239;50.932;3.142;2022-12-11T01:17:07;2.40;99.90
18229;DHT22;9239;50.932;3.142;2022-12-11T01:19:36;2.50;99.90
18229;DHT22;9239;50.932;3.142;2022-12-11T01:22:03;2.50;99.90
18229;DHT22;9239;50.932;3.142;2022-12-11T01:24:29;2.50;99.90
18229;DHT22;9239;50.932;3.142;2022-12-11T01:26:56;2.60;99.90
18229;DHT22;9239;50.932;3.142;2022-12-11T01:29:23;2.50;99.90
18229;DHT22;9239;50.932;3.142;2022-12-11T01:31:50;2.50;99.90
18229;DHT22;9239;50.932;3.142;2022-12-11T01:34:17;2.40;99.90
18229;DHT22;9239;50.932;3.142;2022-12-11T01:36:45;2.50;99.90
18229;DHT22;9239;50.932;3.142;2022-12-11T01:39:12;2.50;99.90
18229;DHT22;9239;50.932;3.142;2022-12-11T01:41:39;2.50;99.90
18229;DHT22;9239;50.932;3.142;2022-12-11T01:45:00;2.50;99.90
18229;DHT22;9239;50.932;3.142;2022-12-11T01:46:53;2.50;99.90
18229;DHT22;9239;50.932;3.142;2022-12-11T01:49:22;2.60;99.90
18229;DHT22;9239;50.932;3.142;2022-12-11T01:51:58;2.60;99.90
18229;DHT22;9239;50.932;3.142;2022-12-11T01:54:27;2.50;99.90
18229;DHT22;9239;50.932;3.142;2022-12-11T01:56:57;2.50;99.90
18229;DHT22;9239;50.932;3.142;2022-12-11T01:59:28;2.60;99.90
18229;DHT22;9239;50.932;3.142;2022-12-11T02:01:58;2.50;99.90
18229;DHT22;9239;50.932;3.142;2022-12-11T02:04:27;2.50;99.90
18229;DHT22;9239;50.932;3.142;2022-12-11T02:06:56;2.50;99.90
18229;DHT22;9239;50.932;3.142;2022-12-11T02:09:26;2.50;99.90
18229;DHT22;9239;50.932;3.142;2022-12-11T02:12:00;2.60;99.90
18229;DHT22;9239;50.932;3.142;2022-12-11T02:14:31;2.60;99.90
18229;DHT22;9239;50.932;3.142;2022-12-11T02:17:05;2.60;99.90
18229;DHT22;9239;50.932;3.142;2022-12-11T02:19:50;2.60;99.90
18229;DHT22;9239;50.932;3.142;2022-12-11T02:22:27;2.60;99.90
18229;DHT22;9239;50.932;3.142;2022-12-11T02:25:04;2.70;99.90
18229;DHT22;9239;50.932;3.142;2022-12-11T02:27:40;2.70;99.90
18229;DHT22;9239;50.932;3.142;2022-12-11T02:30:12;2.70;99.90
18229;DHT22;9239;50.932;3.142;2022-12-11T02:32:44;2.70;99.90
18229;DHT22;9239;50.932;3.142;2022-12-11T02:35:17;2.70;99.90
18229;DHT22;9239;50.932;3.142;2022-12-11T02:37:46;2.60;99.90
18229;DHT22;9239;50.932;3.142;2022-12-11T02:40:16;2.60;99.90
18229;DHT22;9239;50.932;3.142;2022-12-11T02:42:47;2.70;99.90
18229;DHT22;9239;50.932;3.142;2022-12-11T02:45:18;2.60;99.90
18229;DHT22;9239;50.932;3.142;2022-12-11T02:47:47;2.70;99.90
18229;DHT22;9239;50.932;3.142;2022-12-11T02:50:18;2.60;99.90
18229;DHT22;9239;50.932;3.142;2022-12-11T02:52:47;2.70;99.90
18229;DHT22;9239;50.932;3.142;2022-12-11T02:55:16;2.60;99.90
18229;DHT22;9239;50.932;3.142;2022-12-11T02:57:46;2.60;99.90
18229;DHT22;9239;50.932;3.142;2022-12-11T03:00:15;2.50;99.90
18229;DHT22;9239;50.932;3.142;2022-12-11T03:02:43;2.50;99.90
18229;DHT22;9239;50.932;3.142;2022-12-11T03:05:11;2.40;99.90
18229;DHT22;9239;50.932;3.142;2022-12-11T03:07:41;2.40;99.90
18229;DHT22;9239;50.932;3.142;2022-12-11T03:10:11;2.40;99.90
18229;DHT22;9239;50.932;3.142;2022-12-11T03:12:41;2.40;99.90
18229;DHT22;9239;50.932;3.142;2022-12-11T03:15:13;2.40;99.90
18229;DHT22;9239;50.932;3.142;2022-12-11T03:17:49;2.30;99.90
18229;DHT22;9239;50.932;3.142;2022-12-11T03:20:25;2.30;99.90
18229;DHT22;9239;50.932;3.142;2022-12-11T03:23:01;2.30;99.90
18229;DHT22;9239;50.932;3.142;2022-12-11T03:25:33;2.30;99.90
18229;DHT22;9239;50.932;3.142;2022-12-11T03:28:06;2.40;99.90
18229;DHT22;9239;50.932;3.142;2022-12-11T03:30:36;2.40;99.90
18229;DHT22;9239;50.932;3.142;2022-12-11T03:33:07;2.40;99.90
18229;DHT22;9239;50.932;3.142;2022-12-11T03:35:38;2.30;99.90
18229;DHT22;9239;50.932;3.142;2022-12-11T03:38:08;2.30;99.90
18229;DHT22;9239;50.932;3.142;2022-12-11T03:40:38;2.30;99.90
18229;DHT22;9239;50.932;3.142;2022-12-11T03:43:07;2.30;99.90
18229;DHT22;9239;50.932;3.142;2022-12-11T03:45:38;2.20;99.90
18229;DHT22;9239;50.932;3.142;2022-12-11T03:48:09;2.20;99.90
18229;DHT22;9239;50.932;3.142;2022-12-11T03:50:38;2.20;99.90
18229;DHT22;9239;50.932;3.142;2022-12-11T03:53:06;2.20;99.90
18229;DHT22;9239;50.932;3.142;2022-12-11T03:55:35;2.10;99.90
18229;DHT22;9239;50.932;3.142;2022-12-11T03:58:03;2.10;99.90
18229;DHT22;9239;50.932;3.142;2022-12-11T04:00:30;2.10;99.90
18229;DHT22;9239;50.932;3.142;2022-12-11T04:02:57;2.10;99.90
18229;DHT22;9239;50.932;3.142;2022-12-11T04:05:41;2.10;99.90
18229;DHT22;9239;50.932;3.142;2022-12-11T04:08:08;2.10;99.90
18229;DHT22;9239;50.932;3.142;2022-12-11T04:10:35;2.10;99.90
18229;DHT22;9239;50.932;3.142;2022-12-11T04:13:02;2.10;99.90
18229;DHT22;9239;50.932;3.142;2022-12-11T04:15:29;2.10;99.90
18229;DHT22;9239;50.932;3.142;2022-12-11T04:17:55;2.20;99.90
18229;DHT22;9239;50.932;3.142;2022-12-11T04:20:44;2.20;99.90
18229;DHT22;9239;50.932;3.142;2022-12-11T04:23:28;2.20;99.90
18229;DHT22;9239;50.932;3.142;2022-12-11T04:26:14;2.20;99.90
18229;DHT22;9239;50.932;3.142;2022-12-11T04:28:43;2.20;99.90
18229;DHT22;9239;50.932;3.142;2022-12-11T04:31:11;2.20;99.90
18229;DHT22;9239;50.932;3.142;2022-12-11T04:33:38;2.20;99.90
18229;DHT22;9239;50.932;3.142;2022-12-11T04:36:08;2.20;99.90
18229;DHT22;9239;50.932;3.142;2022-12-11T04:38:35;2.20;99.90
18229;DHT22;9239;50.932;3.142;2022-12-11T04:41:03;2.20;99.90
18229;DHT22;9239;50.932;3.142;2022-12-11T04:43:31;2.20;99.90
18229;DHT22;9239;50.932;3.142;2022-12-11T04:46:02;2.30;99.90
18229;DHT22;9239;50.932;3.142;2022-12-11T04:48:29;2.20;99.90
18229;DHT22;9239;50.932;3.142;2022-12-11T04:50:57;2.20;99.90
18229;DHT22;9239;50.932;3.142;2022-12-11T04:53:26;2.20;99.90
18229;DHT22;9239;50.932;3.142;2022-12-11T04:55:53;2.20;99.90
18229;DHT22;9239;50.932;3.142;2022-12-11T04:58:21;2.20;99.90
18229;DHT22;9239;50.932;3.142;2022-12-11T05:00:48;2.20;99.90
18229;DHT22;9239;50.932;3.142;2022-12-11T05:03:16;2.10;99.90
18229;DHT22;9239;50.932;3.142;2022-12-11T05:05:46;2.20;99.90
18229;DHT22;9239;50.932;3.142;2022-12-11T05:08:13;2.20;99.90
18229;DHT22;9239;50.932;3.142;2022-12-11T05:10:42;2.20;99.90
18229;DHT22;9239;50.932;3.142;2022-12-11T05:13:09;2.20;99.90
18229;DHT22;9239;50.932;3.142;2022-12-11T05:15:37;2.20;99.90
18229;DHT22;9239;50.932;3.142;2022-12-11T05:18:04;2.20;99.90
18229;DHT22;9239;50.932;3.142;2022-12-11T05:20:31;2.20;99.90
18229;DHT22;9239;50.932;3.142;2022-12-11T05:22:58;2.20;99.90
18229;DHT22;9239;50.932;3.142;2022-12-11T05:25:25;2.20;99.90
18229;DHT22;9239;50.932;3.142;2022-12-11T05:27:54;2.10;99.90
18229;DHT22;9239;50.932;3.142;2022-12-11T05:30:20;2.10;99.90
18229;DHT22;9239;50.932;3.142;2022-12-11T05:32:47;2.10;99.90
18229;DHT22;9239;50.932;3.142;2022-12-11T05:35:14;2.20;99.90
18229;DHT22;9239;50.932;3.142;2022-12-11T05:37:41;2.10;99.90
18229;DHT22;9239;50.932;3.142;2022-12-11T05:40:09;2.10;99.90
18229;DHT22;9239;50.932;3.142;2022-12-11T05:42:37;2.10;99.90
18229;DHT22;9239;50.932;3.142;2022-12-11T05:45:06;2.10;99.90
18229;DHT22;9239;50.932;3.142;2022-12-11T05:47:33;2.10;99.90
18229;DHT22;9239;50.932;3.142;2022-12-11T05:50:00;2.00;99.90
18229;DHT22;9239;50.932;3.142;2022-12-11T05:52:27;2.00;99.90
18229;DHT22;9239;50.932;3.142;2022-12-11T05:54:53;2.00;99.90
18229;DHT22;9239;50.932;3.142;2022-12-11T05:57:20;2.00;99.90
18229;DHT22;9239;50.932;3.142;2022-12-11T05:59:47;2.00;99.90
18229;DHT22;9239;50.932;3.142;2022-12-11T06:02:15;2.10;99.90
18229;DHT22;9239;50.932;3.142;2022-12-11T06:04:42;2.10;99.90
18229;DHT22;9239;50.932;3.142;2022-12-11T06:07:09;2.00;99.90
18229;DHT22;9239;50.932;3.142;2022-12-11T06:09:36;2.00;99.90
18229;DHT22;9239;50.932;3.142;2022-12-11T06:12:03;2.00;99.90
18229;DHT22;9239;50.932;3.142;2022-12-11T06:14:30;2.00;99.90
18229;DHT22;9239;50.932;3.142;2022-12-11T06:16:57;2.00;99.90
18229;DHT22;9239;50.932;3.142;2022-12-11T06:19:25;1.90;99.90
18229;DHT22;9239;50.932;3.142;2022-12-11T06:21:52;1.90;99.90
18229;DHT22;9239;50.932;3.142;2022-12-11T06:24:19;1.90;99.90
18229;DHT22;9239;50.932;3.142;2022-12-11T06:26:46;1.90;99.90
18229;DHT22;9239;50.932;3.142;2022-12-11T06:29:13;1.90;99.90
18229;DHT22;9239;50.932;3.142;2022-12-11T06:31:40;1.80;99.90
18229;DHT22;9239;50.932;3.142;2022-12-11T06:34:07;1.90;99.90
18229;DHT22;9239;50.932;3.142;2022-12-11T06:36:36;1.80;99.90
18229;DHT22;9239;50.932;3.142;2022-12-11T06:39:03;1.80;99.90
18229;DHT22;9239;50.932;3.142;2022-12-11T06:41:30;1.80;99.90
18229;DHT22;9239;50.932;3.142;2022-12-11T06:43:57;1.70;99.90
18229;DHT22;9239;50.932;3.142;2022-12-11T06:46:23;1.80;99.90
18229;DHT22;9239;50.932;3.142;2022-12-11T06:48:51;1.80;99.90
18229;DHT22;9239;50.932;3.142;2022-12-11T06:51:20;1.80;99.90
18229;DHT22;9239;50.932;3.142;2022-12-11T06:53:51;1.80;99.90
18229;DHT22;9239;50.932;3.142;2022-12-11T06:56:18;1.80;99.90
18229;DHT22;9239;50.932;3.142;2022-12-11T06:58:46;1.80;99.90
18229;DHT22;9239;50.932;3.142;2022-12-11T07:01:14;1.80;99.90
18229;DHT22;9239;50.932;3.142;2022-12-11T07:03:41;1.80;99.90
18229;DHT22;9239;50.932;3.142;2022-12-11T07:06:09;1.80;99.90
18229;DHT22;9239;50.932;3.142;2022-12-11T07:08:36;1.70;99.90
18229;DHT22;9239;50.932;3.142;2022-12-11T07:11:06;1.70;99.90
18229;DHT22;9239;50.932;3.142;2022-12-11T07:13:33;1.70;99.90
18229;DHT22;9239;50.932;3.142;2022-12-11T07:16:01;1.80;99.90
18229;DHT22;9239;50.932;3.142;2022-12-11T07:18:29;1.80;99.90
18229;DHT22;9239;50.932;3.142;2022-12-11T07:20:57;1.70;99.90
18229;DHT22;9239;50.932;3.142;2022-12-11T07:23:24;1.70;99.90
18229;DHT22;9239;50.932;3.142;2022-12-11T07:25:51;1.70;99.90
18229;DHT22;9239;50.932;3.142;2022-12-11T07:28:20;1.60;99.90
18229;DHT22;9239;50.932;3.142;2022-12-11T07:30:47;1.60;99.90
18229;DHT22;9239;50.932;3.142;2022-12-11T07:33:13;1.60;99.90
18229;DHT22;9239;50.932;3.142;2022-12-11T07:35:41;1.60;99.90
18229;DHT22;9239;50.932;3.142;2022-12-11T07:38:07;1.60;99.90
18229;DHT22;9239;50.932;3.142;2022-12-11T07:40:34;1.60;99.90
18229;DHT22;9239;50.932;3.142;2022-12-11T07:43:01;1.60;99.90
18229;DHT22;9239;50.932;3.142;2022-12-11T07:45:29;1.60;99.90
18229;DHT22;9239;50.932;3.142;2022-12-11T07:47:57;1.60;99.90
18229;DHT22;9239;50.932;3.142;2022-12-11T07:50:23;1.60;99.90
18229;DHT22;9239;50.932;3.142;2022-12-11T07:52:50;1.60;99.90
18229;DHT22;9239;50.932;3.142;2022-12-11T07:55:17;1.60;99.90
18229;DHT22;9239;50.932;3.142;2022-12-11T07:57:44;1.60;99.90
18229;DHT22;9239;50.932;3.142;2022-12-11T08:00:12;1.60;99.90
18229;DHT22;9239;50.932;3.142;2022-12-11T08:02:40;1.50;99.90
18229;DHT22;9239;50.932;3.142;2022-12-11T08:05:08;1.50;99.90
18229;DHT22;9239;50.932;3.142;2022-12-11T08:07:35;1.70;99.90
18229;DHT22;9239;50.932;3.142;2022-12-11T08:10:02;1.70;99.90
18229;DHT22;9239;50.932;3.142;2022-12-11T08:12:29;1.60;99.90
18229;DHT22;9239;50.932;3.142;2022-12-11T08:14:56;1.50;99.90
18229;DHT22;9239;50.932;3.142;2022-12-11T08:17:23;1.50;99.90
18229;DHT22;9239;50.932;3.142;2022-12-11T08:19:51;1.50;99.90
18229;DHT22;9239;50.932;3.142;2022-12-11T08:22:18;1.50;99.90
18229;DHT22;9239;50.932;3.142;2022-12-11T08:24:46;1.50;99.90
18229;DHT22;9239;50.932;3.142;2022-12-11T08:27:12;1.60;99.90
18229;DHT22;9239;50.932;3.142;2022-12-11T08:29:39;1.60;99.90
18229;DHT22;9239;50.932;3.142;2022-12-11T08:32:06;1.70;99.90
18229;DHT22;9239;50.932;3.142;2022-12-11T08:34:33;1.70;99.90
18229;DHT22;9239;50.932;3.142;2022-12-11T08:37:02;1.70;99.90
18229;DHT22;9239;50.932;3.142;2022-12-11T08:39:29;1.70;99.90
18229;DHT22;9239;50.932;3.142;2022-12-11T08:41:55;1.70;99.90
18229;DHT22;9239;50.932;3.142;2022-12-11T08:44:22;1.70;99.90
18229;DHT22;9239;50.932;3.142;2022-12-11T08:46:51;1.60;99.90
18229;DHT22;9239;50.932;3.142;2022-12-11T08:49:18;1.60;99.90
18229;DHT22;9239;50.932;3.142;2022-12-11T08:51:45;1.70;99.90
18229;DHT22;9239;50.932;3.142;2022-12-11T08:54:13;1.70;99.90
18229;DHT22;9239;50.932;3.142;2022-12-11T08:56:40;1.70;99.90
18229;DHT22;9239;50.932;3.142;2022-12-11T08:59:07;1.80;99.90
18229;DHT22;9239;50.932;3.142;2022-12-11T09:01:34;1.80;99.90
18229;DHT22;9239;50.932;3.142;2022-12-11T09:04:00;1.80;99.90
18229;DHT22;9239;50.932;3.142;2022-12-11T09:06:28;1.90;99.90
18229;DHT22;9239;50.932;3.142;2022-12-11T09:08:58;1.90;99.90
18229;DHT22;9239;50.932;3.142;2022-12-11T09:11:28;1.90;99.90
18229;DHT22;9239;50.932;3.142;2022-12-11T09:13:55;1.90;99.90
18229;DHT22;9239;50.932;3.142;2022-12-11T09:16:25;1.90;99.90
18229;DHT22;9239;50.932;3.142;2022-12-11T09:18:54;1.90;99.90
18229;DHT22;9239;50.932;3.142;2022-12-11T09:21:23;1.80;99.90
18229;DHT22;9239;50.932;3.142;2022-12-11T09:23:52;1.80;99.90
18229;DHT22;9239;50.932;3.142;2022-12-11T09:26:19;1.90;99.90
18229;DHT22;9239;50.932;3.142;2022-12-11T09:28:48;1.80;99.90
18229;DHT22;9239;50.932;3.142;2022-12-11T09:31:19;1.90;99.90
18229;DHT22;9239;50.932;3.142;2022-12-11T09:33:48;1.90;99.90
18229;DHT22;9239;50.932;3.142;2022-12-11T09:36:16;2.00;99.90
18229;DHT22;9239;50.932;3.142;2022-12-11T09:38:43;2.00;99.90
18229;DHT22;9239;50.932;3.142;2022-12-11T09:41:28;1.90;99.90
18229;DHT22;9239;50.932;3.142;2022-12-11T09:44:06;1.80;99.90
18229;DHT22;9239;50.932;3.142;2022-12-11T09:46:38;2.10;99.90
18229;DHT22;9239;50.932;3.142;2022-12-11T09:49:13;2.20;99.90
18229;DHT22;9239;50.932;3.142;2022-12-11T09:51:45;2.20;99.90
18229;DHT22;9239;50.932;3.142;2022-12-11T09:54:13;2.10;99.90
18229;DHT22;9239;50.932;3.142;2022-12-11T09:56:44;2.10;99.90
18229;DHT22;9239;50.932;3.142;2022-12-11T09:59:22;2.10;99.90
18229;DHT22;9239;50.932;3.142;2022-12-11T10:01:57;2.10;99.90
18229;DHT22;9239;50.932;3.142;2022-12-11T10:04:35;2.20;99.90
18229;DHT22;9239;50.932;3.142;2022-12-11T10:07:10;2.20;99.90
18229;DHT22;9239;50.932;3.142;2022-12-11T10:09:45;2.10;99.90
18229;DHT22;9239;50.932;3.142;2022-12-11T10:12:24;2.20;99.90
18229;DHT22;9239;50.932;3.142;2022-12-11T10:15:23;2.10;99.90
18229;DHT22;9239;50.932;3.142;2022-12-11T10:17:54;2.30;99.90
18229;DHT22;9239;50.932;3.142;2022-12-11T10:20:24;2.40;99.90
18229;DHT22;9239;50.932;3.142;2022-12-11T10:22:53;2.50;99.90
18229;DHT22;9239;50.932;3.142;2022-12-11T10:25:24;2.50;99.90
18229;DHT22;9239;50.932;3.142;2022-12-11T10:27:53;2.60;99.90
18229;DHT22;9239;50.932;3.142;2022-12-11T10:30:22;2.50;99.90
18229;DHT22;9239;50.932;3.142;2022-12-11T10:32:52;2.50;99.90
18229;DHT22;9239;50.932;3.142;2022-12-11T10:35:32;2.50;99.90
18229;DHT22;9239;50.932;3.142;2022-12-11T10:38:11;2.40;99.90
18229;DHT22;9239;50.932;3.142;2022-12-11T10:40:42;2.40;99.90
18229;DHT22;9239;50.932;3.142;2022-12-11T10:43:09;2.40;99.90
18229;DHT22;9239;50.932;3.142;2022-12-11T10:45:38;2.40;99.90
18229;DHT22;9239;50.932;3.142;2022-12-11T10:48:08;2.40;99.90
18229;DHT22;9239;50.932;3.142;2022-12-11T10:50:36;2.40;99.90
18229;DHT22;9239;50.932;3.142;2022-12-11T10:53:04;2.40;99.90
18229;DHT22;9239;50.932;3.142;2022-12-11T10:55:38;2.50;99.90
18229;DHT22;9239;50.932;3.142;2022-12-11T10:58:16;2.50;99.90
18229;DHT22;9239;50.932;3.142;2022-12-11T11:00:45;2.40;99.90
18229;DHT22;9239;50.932;3.142;2022-12-11T11:03:22;2.40;99.90
18229;DHT22;9239;50.932;3.142;2022-12-11T11:06:01;2.50;99.90
18229;DHT22;9239;50.932;3.142;2022-12-11T11:08:37;2.50;99.90
18229;DHT22;9239;50.932;3.142;2022-12-11T11:11:05;2.50;99.90
18229;DHT22;9239;50.932;3.142;2022-12-11T11:13:33;2.50;99.90
18229;DHT22;9239;50.932;3.142;2022-12-11T11:16:04;2.40;99.90
18229;DHT22;9239;50.932;3.142;2022-12-11T11:18:32;2.50;99.90
18229;DHT22;9239;50.932;3.142;2022-12-11T11:21:00;2.50;99.90
18229;DHT22;9239;50.932;3.142;2022-12-11T11:23:28;2.60;99.90
18229;DHT22;9239;50.932;3.142;2022-12-11T11:25:57;2.60;99.90
18229;DHT22;9239;50.932;3.142;2022-12-11T11:28:26;2.50;99.90
18229;DHT22;9239;50.932;3.142;2022-12-11T11:31:01;2.60;99.90
18229;DHT22;9239;50.932;3.142;2022-12-11T11:33:30;2.60;99.90
18229;DHT22;9239;50.932;3.142;2022-12-11T11:35:59;2.60;99.90
18229;DHT22;9239;50.932;3.142;2022-12-11T11:38:29;2.70;99.90
18229;DHT22;9239;50.932;3.142;2022-12-11T11:41:03;2.70;99.90
18229;DHT22;9239;50.932;3.142;2022-12-11T11:43:36;2.70;99.90
18229;DHT22;9239;50.932;3.142;2022-12-11T11:46:10;2.60;99.90
18229;DHT22;9239;50.932;3.142;2022-12-11T11:48:47;2.60;99.90
18229;DHT22;9239;50.932;3.142;2022-12-11T11:51:20;2.60;99.90
18229;DHT22;9239;50.932;3.142;2022-12-11T11:53:50;2.70;99.90
18229;DHT22;9239;50.932;3.142;2022-12-11T11:56:21;2.70;99.90
18229;DHT22;9239;50.932;3.142;2022-12-11T11:58:59;2.70;99.90
18229;DHT22;9239;50.932;3.142;2022-12-11T12:01:29;2.70;99.90
18229;DHT22;9239;50.932;3.142;2022-12-11T12:03:56;2.60;99.90
18229;DHT22;9239;50.932;3.142;2022-12-11T12:06:35;2.50;99.90
18229;DHT22;9239;50.932;3.142;2022-12-11T12:09:16;2.40;99.90
18229;DHT22;9239;50.932;3.142;2022-12-11T12:11:50;2.40;99.90
18229;DHT22;9239;50.932;3.142;2022-12-11T12:14:20;2.40;99.90
18229;DHT22;9239;50.932;3.142;2022-12-11T12:16:59;2.30;99.90
18229;DHT22;9239;50.932;3.142;2022-12-11T12:19:54;2.40;99.90
18229;DHT22;9239;50.932;3.142;2022-12-11T12:22:35;2.40;99.90
18229;DHT22;9239;50.932;3.142;2022-12-11T12:25:15;2.40;99.90
18229;DHT22;9239;50.932;3.142;2022-12-11T12:27:49;2.40;99.90
18229;DHT22;9239;50.932;3.142;2022-12-11T12:30:20;2.40;99.90
18229;DHT22;9239;50.932;3.142;2022-12-11T12:32:57;2.50;99.90
18229;DHT22;9239;50.932;3.142;2022-12-11T12:35:33;2.50;99.90
18229;DHT22;9239;50.932;3.142;2022-12-11T12:38:06;2.50;99.90
18229;DHT22;9239;50.932;3.142;2022-12-11T12:40:41;2.50;99.90
18229;DHT22;9239;50.932;3.142;2022-12-11T12:46:23;2.40;99.90
18229;DHT22;9239;50.932;3.142;2022-12-11T12:48:55;2.50;99.90
18229;DHT22;9239;50.932;3.142;2022-12-11T12:51:24;2.60;99.90
18229;DHT22;9239;50.932;3.142;2022-12-11T12:53:54;2.60;99.90
18229;DHT22;9239;50.932;3.142;2022-12-11T12:56:22;2.60;99.90
18229;DHT22;9239;50.932;3.142;2022-12-11T12:58:50;2.80;99.90
18229;DHT22;9239;50.932;3.142;2022-12-11T13:01:19;2.70;99.90
18229;DHT22;9239;50.932;3.142;2022-12-11T13:03:55;2.70;99.90
18229;DHT22;9239;50.932;3.142;2022-12-11T13:06:32;2.60;99.90
18229;DHT22;9239;50.932;3.142;2022-12-11T13:09:11;2.50;99.90
18229;DHT22;9239;50.932;3.142;2022-12-11T13:11:39;2.50;99.90
18229;DHT22;9239;50.932;3.142;2022-12-11T13:14:22;2.50;99.90
18229;DHT22;9239;50.932;3.142;2022-12-11T13:17:04;2.60;99.90
18229;DHT22;9239;50.932;3.142;2022-12-11T13:19:34;2.50;99.90
18229;DHT22;9239;50.932;3.142;2022-12-11T13:22:02;2.60;99.90
18229;DHT22;9239;50.932;3.142;2022-12-11T13:24:31;2.50;99.90
18229;DHT22;9239;50.932;3.142;2022-12-11T13:27:08;2.60;99.90
18229;DHT22;9239;50.932;3.142;2022-12-11T13:29:37;2.60;99.90
18229;DHT22;9239;50.932;3.142;2022-12-11T13:32:20;2.60;99.90
18229;DHT22;9239;50.932;3.142;2022-12-11T13:34:55;2.60;99.90
18229;DHT22;9239;50.932;3.142;2022-12-11T13:37:26;2.60;99.90
18229;DHT22;9239;50.932;3.142;2022-12-11T13:39:55;2.70;99.90
18229;DHT22;9239;50.932;3.142;2022-12-11T13:42:26;2.80;99.90
18229;DHT22;9239;50.932;3.142;2022-12-11T13:44:54;2.80;99.90
18229;DHT22;9239;50.932;3.142;2022-12-11T13:47:21;2.70;99.90
18229;DHT22;9239;50.932;3.142;2022-12-11T13:49:54;2.60;99.90
18229;DHT22;9239;50.932;3.142;2022-12-11T13:52:23;2.60;99.90
18229;DHT22;9239;50.932;3.142;2022-12-11T13:54:53;2.60;99.90
18229;DHT22;9239;50.932;3.142;2022-12-11T13:57:22;2.50;99.90
18229;DHT22;9239;50.932;3.142;2022-12-11T13:59:51;2.50;99.90
18229;DHT22;9239;50.932;3.142;2022-12-11T14:02:21;2.50;99.90
18229;DHT22;9239;50.932;3.142;2022-12-11T14:04:52;2.50;99.90
18229;DHT22;9239;50.932;3.142;2022-12-11T14:07:24;2.50;99.90
18229;DHT22;9239;50.932;3.142;2022-12-11T14:09:55;2.50;99.90
18229;DHT22;9239;50.932;3.142;2022-12-11T14:12:24;2.50;99.90
18229;DHT22;9239;50.932;3.142;2022-12-11T14:14:53;2.40;99.90
18229;DHT22;9239;50.932;3.142;2022-12-11T14:17:23;2.40;99.90
18229;DHT22;9239;50.932;3.142;2022-12-11T14:19:52;2.40;99.90
18229;DHT22;9239;50.932;3.142;2022-12-11T14:22:23;2.30;99.90
18229;DHT22;9239;50.932;3.142;2022-12-11T14:24:51;2.40;99.90
18229;DHT22;9239;50.932;3.142;2022-12-11T14:27:19;2.70;99.90
18229;DHT22;9239;50.932;3.142;2022-12-11T14:29:46;2.70;99.90
18229;DHT22;9239;50.932;3.142;2022-12-11T14:32:19;2.60;99.90
18229;DHT22;9239;50.932;3.142;2022-12-11T14:34:50;2.60;99.90
18229;DHT22;9239;50.932;3.142;2022-12-11T14:37:21;2.60;99.90
18229;DHT22;9239;50.932;3.142;2022-12-11T14:39:54;2.50;99.90
18229;DHT22;9239;50.932;3.142;2022-12-11T14:42:23;2.40;99.90
18229;DHT22;9239;50.932;3.142;2022-12-11T14:44:57;2.40;99.90
18229;DHT22;9239;50.932;3.142;2022-12-11T14:47:27;2.30;99.90
18229;DHT22;9239;50.932;3.142;2022-12-11T14:49:59;2.30;99.90
18229;DHT22;9239;50.932;3.142;2022-12-11T14:52:32;2.30;99.90
18229;DHT22;9239;50.932;3.142;2022-12-11T14:55:05;2.30;99.90
18229;DHT22;9239;50.932;3.142;2022-12-11T14:57:33;2.30;99.90
18229;DHT22;9239;50.932;3.142;2022-12-11T15:00:02;2.30;99.90
18229;DHT22;9239;50.932;3.142;2022-12-11T15:02:30;2.30;99.90
18229;DHT22;9239;50.932;3.142;2022-12-11T15:05:11;2.30;99.90
18229;DHT22;9239;50.932;3.142;2022-12-11T15:07:40;2.40;99.90
18229;DHT22;9239;50.932;3.142;2022-12-11T15:10:21;2.60;99.90
18229;DHT22;9239;50.932;3.142;2022-12-11T15:12:49;2.60;99.90
18229;DHT22;9239;50.932;3.142;2022-12-11T15:15:16;2.60;99.90
18229;DHT22;9239;50.932;3.142;2022-12-11T15:17:44;2.70;99.90
18229;DHT22;9239;50.932;3.142;2022-12-11T15:20:21;2.70;99.90
18229;DHT22;9239;50.932;3.142;2022-12-11T15:22:50;2.70;99.90
18229;DHT22;9239;50.932;3.142;2022-12-11T15:25:19;2.60;99.90
18229;DHT22;9239;50.932;3.142;2022-12-11T15:27:50;2.40;99.90
18229;DHT22;9239;50.932;3.142;2022-12-11T15:30:26;2.30;99.90
18229;DHT22;9239;50.932;3.142;2022-12-11T15:33:16;2.20;99.90
18229;DHT22;9239;50.932;3.142;2022-12-11T15:35:53;2.20;99.90
18229;DHT22;9239;50.932;3.142;2022-12-11T15:38:31;2.20;99.90
18229;DHT22;9239;50.932;3.142;2022-12-11T15:40:58;2.10;99.90
18229;DHT22;9239;50.932;3.142;2022-12-11T15:43:26;2.00;99.90
18229;DHT22;9239;50.932;3.142;2022-12-11T15:45:54;2.00;99.90
18229;DHT22;9239;50.932;3.142;2022-12-11T15:48:20;1.90;99.90
18229;DHT22;9239;50.932;3.142;2022-12-11T15:50:47;1.80;99.90
18229;DHT22;9239;50.932;3.142;2022-12-11T15:53:14;1.70;99.90
18229;DHT22;9239;50.932;3.142;2022-12-11T15:55:43;1.70;99.90
18229;DHT22;9239;50.932;3.142;2022-12-11T15:58:14;1.60;99.90
18229;DHT22;9239;50.932;3.142;2022-12-11T16:00:43;1.60;99.90
18229;DHT22;9239;50.932;3.142;2022-12-11T16:03:11;1.60;99.90
18229;DHT22;9239;50.932;3.142;2022-12-11T16:05:39;1.50;99.90
18229;DHT22;9239;50.932;3.142;2022-12-11T16:08:06;1.50;99.90
18229;DHT22;9239;50.932;3.142;2022-12-11T16:10:33;1.40;99.90
18229;DHT22;9239;50.932;3.142;2022-12-11T16:13:02;1.30;99.90
18229;DHT22;9239;50.932;3.142;2022-12-11T16:15:29;1.30;99.90
18229;DHT22;9239;50.932;3.142;2022-12-11T16:18:00;1.30;99.90
18229;DHT22;9239;50.932;3.142;2022-12-11T16:20:28;1.30;99.90
18229;DHT22;9239;50.932;3.142;2022-12-11T16:22:55;1.30;99.90